sensor_id;sensor_type;location;lat;lon;timestamp;pressure;altitude;pressure_sealevel;temperature;humidity
7058;BME280;3570;43.080;25.628;2023-09-19T00:01:04;-20006.00;;;19.02;100.00
7058;BME280;3570;43.080;25.628;2023-09-19T00:03:50;-20002.25;;;18.89;100.00
7058;BME280;3570;43.080;25.628;2023-09-19T00:06:33;-19983.78;;;18.25;100.00
7058;BME280;3570;43.080;25.628;2023-09-19T00:09:17;-20005.00;;;18.98;100.00
7058;BME280;3570;43.080;25.628;2023-09-19T00:12:01;-20006.44;;;19.03;100.00
7058;BME280;3570;43.080;25.628;2023-09-19T00:14:46;-20000.63;;;18.83;100.00
7058;BME280;3570;43.080;25.628;2023-09-19T00:17:31;-20004.69;;;18.97;100.00
7058;BME280;3570;43.080;25.628;2023-09-19T00:20:15;-19998.31;;;18.75;100.00
7058;BME280;3570;43.080;25.628;2023-09-19T00:23:01;-19998.03;;;18.74;100.00
7058;BME280;3570;43.080;25.628;2023-09-19T00:25:52;-19998.03;;;18.74;100.00
7058;BME280;3570;43.080;25.628;2023-09-19T00:28:41;-19988.88;;;18.42;100.00
7058;BME280;3570;43.080;25.628;2023-09-19T00:31:25;-19995.72;;;18.66;100.00
7058;BME280;3570;43.080;25.628;2023-09-19T00:34:09;-19993.97;;;18.60;100.00
7058;BME280;3570;43.080;25.628;2023-09-19T00:36:54;-19980.59;;;18.14;100.00
7058;BME280;3570;43.080;25.628;2023-09-19T00:39:38;-19963.75;;;17.55;100.00
7058;BME280;3570;43.080;25.628;2023-09-19T00:42:22;-19963.47;;;17.54;100.00
7058;BME280;3570;43.080;25.628;2023-09-19T00:45:07;-19975.97;;;17.98;100.00
7058;BME280;3570;43.080;25.628;2023-09-19T00:47:54;-19983.38;;;18.23;100.00
7058;BME280;3570;43.080;25.628;2023-09-19T00:50:41;-19991.34;;;18.51;100.00
7058;BME280;3570;43.080;25.628;2023-09-19T00:53:26;-19988.75;;;18.42;100.00
7058;BME280;3570;43.080;25.628;2023-09-19T00:56:11;-19991.78;;;18.52;100.00
7058;BME280;3570;43.080;25.628;2023-09-19T00:58:55;-19991.78;;;18.52;100.00
7058;BME280;3570;43.080;25.628;2023-09-19T01:01:39;-19987.72;;;18.38;100.00
7058;BME280;3570;43.080;25.628;2023-09-19T01:04:23;-19981.19;;;18.16;100.00
7058;BME280;3570;43.080;25.628;2023-09-19T01:07:08;-19985.38;;;18.30;100.00
7058;BME280;3570;43.080;25.628;2023-09-19T01:09:52;-19985.38;;;18.30;100.00
7058;BME280;3570;43.080;25.628;2023-09-19T01:22:42;-19982.34;;;18.20;100.00
7058;BME280;3570;43.080;25.628;2023-09-19T01:31:42;-19914.03;;;15.83;100.00
7058;BME280;3570;43.080;25.628;2023-09-19T01:34:27;-19915.47;;;15.88;100.00
7058;BME280;3570;43.080;25.628;2023-09-19T01:37:11;-19879.69;;;14.65;100.00
7058;BME280;3570;43.080;25.628;2023-09-19T01:40:03;-19882.75;;;14.75;100.00
7058;BME280;3570;43.080;25.628;2023-09-19T01:43:06;-19918.09;;;15.97;100.00
7058;BME280;3570;43.080;25.628;2023-09-19T01:46:02;-19929.59;;;16.37;100.00
7058;BME280;3570;43.080;25.628;2023-09-19T01:49:18;-19939.91;;;16.73;100.00
7058;BME280;3570;43.080;25.628;2023-09-19T01:52:13;-19943.25;;;16.84;100.00
7058;BME280;3570;43.080;25.628;2023-09-19T01:55:11;-19958.22;;;17.36;100.00
7058;BME280;3570;43.080;25.628;2023-09-19T01:58:15;-19965.66;;;17.62;100.00
7058;BME280;3570;43.080;25.628;2023-09-19T02:01:01;-19970.59;;;17.79;100.00
7058;BME280;3570;43.080;25.628;2023-09-19T02:03:47;-19972.47;;;17.85;100.00
7058;BME280;3570;43.080;25.628;2023-09-19T02:06:32;-19964.34;;;17.57;100.00
7058;BME280;3570;43.080;25.628;2023-09-19T02:09:17;-19952.72;;;17.17;100.00
7058;BME280;3570;43.080;25.628;2023-09-19T02:12:02;-19953.16;;;17.19;100.00
7058;BME280;3570;43.080;25.628;2023-09-19T02:14:47;-19946.59;;;16.96;100.00
7058;BME280;3570;43.080;25.628;2023-09-19T02:17:31;-19940.94;;;16.76;100.00
7058;BME280;3570;43.080;25.628;2023-09-19T02:20:15;-19930.31;;;16.40;100.00
7058;BME280;3570;43.080;25.628;2023-09-19T02:23:00;-19939.34;;;16.71;100.00
7058;BME280;3570;43.080;25.628;2023-09-19T02:25:53;-19937.59;;;16.65;100.00
7058;BME280;3570;43.080;25.628;2023-09-19T02:28:37;-19911.13;;;15.73;100.00
7058;BME280;3570;43.080;25.628;2023-09-19T02:31:21;-19925.53;;;16.23;100.00
7058;BME280;3570;43.080;25.628;2023-09-19T02:34:08;-19936.00;;;16.59;100.00
7058;BME280;3570;43.080;25.628;2023-09-19T02:36:53;-19954.03;;;17.22;100.00
7058;BME280;3570;43.080;25.628;2023-09-19T02:39:39;-19970.44;;;17.78;100.00
7058;BME280;3570;43.080;25.628;2023-09-19T02:42:23;-19972.63;;;17.86;100.00
7058;BME280;3570;43.080;25.628;2023-09-19T02:45:08;-19962.00;;;17.49;100.00
7058;BME280;3570;43.080;25.628;2023-09-19T02:47:53;-19953.00;;;17.18;100.00
7058;BME280;3570;43.080;25.628;2023-09-19T02:50:38;-19930.91;;;16.42;100.00
7058;BME280;3570;43.080;25.628;2023-09-19T02:53:24;-19915.06;;;15.87;100.00
7058;BME280;3570;43.080;25.628;2023-09-19T02:56:08;-19924.78;;;16.21;100.00
7058;BME280;3570;43.080;25.628;2023-09-19T02:58:53;-19936.72;;;16.62;100.00
7058;BME280;3570;43.080;25.628;2023-09-19T03:01:39;-19945.59;;;16.92;100.00
7058;BME280;3570;43.080;25.628;2023-09-19T03:04:23;-19923.03;;;16.15;100.00
7058;BME280;3570;43.080;25.628;2023-09-19T03:07:06;-19918.41;;;15.98;100.00
7058;BME280;3570;43.080;25.628;2023-09-19T03:09:50;-19930.75;;;16.41;100.00
7058;BME280;3570;43.080;25.628;2023-09-19T03:12:36;-19955.03;;;17.25;100.00
7058;BME280;3570;43.080;25.628;2023-09-19T03:15:21;-19958.09;;;17.36;100.00
7058;BME280;3570;43.080;25.628;2023-09-19T03:18:05;-19967.53;;;17.68;100.00
7058;BME280;3570;43.080;25.628;2023-09-19T03:20:56;-19964.91;;;17.59;100.00
7058;BME280;3570;43.080;25.628;2023-09-19T03:23:40;-19968.41;;;17.71;100.00
7058;BME280;3570;43.080;25.628;2023-09-19T03:26:24;-19966.94;;;17.66;100.00
7058;BME280;3570;43.080;25.628;2023-09-19T03:29:09;-19963.91;;;17.56;100.00
7058;BME280;3570;43.080;25.628;2023-09-19T03:31:54;-19968.97;;;17.73;100.00
7058;BME280;3570;43.080;25.628;2023-09-19T03:34:39;-19975.66;;;17.97;100.00
7058;BME280;3570;43.080;25.628;2023-09-19T03:37:27;-19976.81;;;18.01;100.00
7058;BME280;3570;43.080;25.628;2023-09-19T03:40:11;-19978.28;;;18.06;100.00
7058;BME280;3570;43.080;25.628;2023-09-19T03:42:56;-19974.78;;;17.94;100.00
7058;BME280;3570;43.080;25.628;2023-09-19T03:45:44;-19967.38;;;17.68;100.00
7058;BME280;3570;43.080;25.628;2023-09-19T03:48:28;-19970.00;;;17.77;100.00
7058;BME280;3570;43.080;25.628;2023-09-19T03:51:12;-19947.19;;;16.98;100.00
7058;BME280;3570;43.080;25.628;2023-09-19T03:53:56;-19941.97;;;16.80;100.00
7058;BME280;3570;43.080;25.628;2023-09-19T03:56:40;-19937.88;;;16.66;100.00
7058;BME280;3570;43.080;25.628;2023-09-19T03:59:24;-19940.66;;;16.75;100.00
7058;BME280;3570;43.080;25.628;2023-09-19T04:02:08;-19952.72;;;17.17;100.00
7058;BME280;3570;43.080;25.628;2023-09-19T04:05:05;-19953.44;;;17.20;100.00
7058;BME280;3570;43.080;25.628;2023-09-19T04:07:50;-19958.97;;;17.39;100.00
7058;BME280;3570;43.080;25.628;2023-09-19T04:10:34;-19957.50;;;17.34;100.00
7058;BME280;3570;43.080;25.628;2023-09-19T04:13:21;-19962.16;;;17.50;100.00
7058;BME280;3570;43.080;25.628;2023-09-19T04:16:05;-19953.72;;;17.21;100.00
7058;BME280;3570;43.080;25.628;2023-09-19T04:18:50;-19956.50;;;17.30;100.00
7058;BME280;3570;43.080;25.628;2023-09-19T04:21:34;-19951.25;;;17.12;100.00
7058;BME280;3570;43.080;25.628;2023-09-19T04:24:19;-19958.38;;;17.37;100.00
7058;BME280;3570;43.080;25.628;2023-09-19T04:27:03;-19965.94;;;17.63;100.00
7058;BME280;3570;43.080;25.628;2023-09-19T04:29:48;-19964.91;;;17.59;100.00
7058;BME280;3570;43.080;25.628;2023-09-19T04:32:33;-19964.03;;;17.56;100.00
7058;BME280;3570;43.080;25.628;2023-09-19T04:35:17;-19971.47;;;17.82;100.00
7058;BME280;3570;43.080;25.628;2023-09-19T04:38:01;-19973.50;;;17.89;100.00
7058;BME280;3570;43.080;25.628;2023-09-19T04:40:47;-19978.56;;;18.07;100.00
7058;BME280;3570;43.080;25.628;2023-09-19T04:43:32;-19984.66;;;18.28;100.00
7058;BME280;3570;43.080;25.628;2023-09-19T04:46:16;-19964.34;;;17.57;100.00
7058;BME280;3570;43.080;25.628;2023-09-19T04:49:01;-19972.03;;;17.84;100.00
7058;BME280;3570;43.080;25.628;2023-09-19T04:51:46;-19970.72;;;17.79;100.00
7058;BME280;3570;43.080;25.628;2023-09-19T04:54:30;-19960.41;;;17.44;100.00
7058;BME280;3570;43.080;25.628;2023-09-19T04:57:14;-19961.13;;;17.46;100.00
7058;BME280;3570;43.080;25.628;2023-09-19T05:00:00;-19951.41;;;17.13;100.00
7058;BME280;3570;43.080;25.628;2023-09-19T05:02:43;-19954.88;;;17.25;100.00
7058;BME280;3570;43.080;25.628;2023-09-19T05:05:28;-19952.72;;;17.17;100.00
7058;BME280;3570;43.080;25.628;2023-09-19T05:08:12;-19923.63;;;16.17;100.00
7058;BME280;3570;43.080;25.628;2023-09-19T05:10:58;-19909.38;;;15.67;100.00
7058;BME280;3570;43.080;25.628;2023-09-19T05:13:45;-19913.31;;;15.81;100.00
7058;BME280;3570;43.080;25.628;2023-09-19T05:16:29;-19895.25;;;15.19;100.00
7058;BME280;3570;43.080;25.628;2023-09-19T05:19:17;-19908.78;;;15.65;100.00
7058;BME280;3570;43.080;25.628;2023-09-19T05:22:01;-19941.81;;;16.79;100.00
7058;BME280;3570;43.080;25.628;2023-09-19T05:24:45;-19976.53;;;18.00;100.00
7058;BME280;3570;43.080;25.628;2023-09-19T05:27:32;-19984.66;;;18.28;100.00
7058;BME280;3570;43.080;25.628;2023-09-19T05:30:17;-19999.78;;;18.80;100.00
7058;BME280;3570;43.080;25.628;2023-09-19T05:33:02;-20008.19;;;19.09;100.00
7058;BME280;3570;43.080;25.628;2023-09-19T05:35:48;-20015.16;;;19.33;100.00
7058;BME280;3570;43.080;25.628;2023-09-19T05:38:32;-20006.44;;;19.03;100.00
7058;BME280;3570;43.080;25.628;2023-09-19T05:41:16;-19990.34;;;18.47;100.00
7058;BME280;3570;43.080;25.628;2023-09-19T05:44:03;-19984.97;;;18.29;100.00
7058;BME280;3570;43.080;25.628;2023-09-19T05:46:47;-20001.06;;;18.85;100.00
7058;BME280;3570;43.080;25.628;2023-09-19T05:49:31;-20015.16;;;19.33;100.00
7058;BME280;3570;43.080;25.628;2023-09-19T05:52:15;-20008.47;;;19.10;100.00
7058;BME280;3570;43.080;25.628;2023-09-19T05:55:01;-20021.09;;;19.54;100.00
7058;BME280;3570;43.080;25.628;2023-09-19T05:57:50;-20029.06;;;19.82;100.00
7058;BME280;3570;43.080;25.628;2023-09-19T06:00:35;-20023.72;;;19.63;100.00
7058;BME280;3570;43.080;25.628;2023-09-19T06:03:20;-20012.81;;;19.25;100.00
7058;BME280;3570;43.080;25.628;2023-09-19T06:06:04;-20032.56;;;19.94;100.00
7058;BME280;3570;43.080;25.628;2023-09-19T06:08:50;-20026.75;;;19.74;100.00
7058;BME280;3570;43.080;25.628;2023-09-19T06:11:35;-20020.38;;;19.51;100.00
7058;BME280;3570;43.080;25.628;2023-09-19T06:14:19;-20039.66;;;20.18;100.00
7058;BME280;3570;43.080;25.628;2023-09-19T06:17:03;-20047.34;;;20.45;100.00
7058;BME280;3570;43.080;25.628;2023-09-19T06:19:47;-20040.97;;;20.23;100.00
7058;BME280;3570;43.080;25.628;2023-09-19T06:22:34;-20041.53;;;20.25;100.00
7058;BME280;3570;43.080;25.628;2023-09-19T06:25:19;-20030.81;;;19.88;100.00
7058;BME280;3570;43.080;25.628;2023-09-19T06:28:03;-20026.91;;;19.74;100.00
7058;BME280;3570;43.080;25.628;2023-09-19T06:30:49;-20019.50;;;19.48;100.00
7058;BME280;3570;43.080;25.628;2023-09-19T06:33:33;-20027.34;;;19.76;100.00
7058;BME280;3570;43.080;25.628;2023-09-19T06:36:17;-20050.09;;;20.54;100.00
7058;BME280;3570;43.080;25.628;2023-09-19T06:39:02;-20064.00;;;21.03;100.00
7058;BME280;3570;43.080;25.628;2023-09-19T06:41:48;-20077.03;;;21.48;100.00
7058;BME280;3570;43.080;25.628;2023-09-19T06:44:32;-20085.00;;;21.76;100.00
7058;BME280;3570;43.080;25.628;2023-09-19T06:47:17;-20088.47;;;21.88;96.79
7058;BME280;3570;43.080;25.628;2023-09-19T06:50:01;-20090.94;;;21.96;91.65
7058;BME280;3570;43.080;25.628;2023-09-19T06:52:46;-20085.56;;;21.78;91.10
7058;BME280;3570;43.080;25.628;2023-09-19T06:55:34;-20084.13;;;21.73;91.86
7058;BME280;3570;43.080;25.628;2023-09-19T06:58:18;-20092.81;;;22.03;90.07
7058;BME280;3570;43.080;25.628;2023-09-19T07:01:03;-20102.22;;;22.35;87.60
7058;BME280;3570;43.080;25.628;2023-09-19T07:03:47;-20110.91;;;22.66;85.14
7058;BME280;3570;43.080;25.628;2023-09-19T07:06:31;-20111.19;;;22.67;85.03
7058;BME280;3570;43.080;25.628;2023-09-19T07:09:16;-20109.31;;;22.60;84.24
7058;BME280;3570;43.080;25.628;2023-09-19T07:12:00;-20125.38;;;23.16;82.44
7058;BME280;3570;43.080;25.628;2023-09-19T07:14:44;-20126.81;;;23.21;82.26
7058;BME280;3570;43.080;25.628;2023-09-19T07:17:28;-20130.56;;;23.34;80.88
7058;BME280;3570;43.080;25.628;2023-09-19T07:20:13;-20128.09;;;23.25;81.02
7058;BME280;3570;43.080;25.628;2023-09-19T07:23:00;-20133.88;;;23.46;78.96
7058;BME280;3570;43.080;25.628;2023-09-19T07:25:44;-20135.63;;;23.52;79.09
7058;BME280;3570;43.080;25.628;2023-09-19T07:28:30;-20144.88;;;23.84;80.39
7058;BME280;3570;43.080;25.628;2023-09-19T07:31:14;-20148.34;;;23.96;78.75
7058;BME280;3570;43.080;25.628;2023-09-19T07:33:58;-20139.97;;;23.67;77.53
7058;BME280;3570;43.080;25.628;2023-09-19T07:36:42;-20131.72;;;23.38;78.74
7058;BME280;3570;43.080;25.628;2023-09-19T07:39:27;-20147.19;;;23.92;77.52
7058;BME280;3570;43.080;25.628;2023-09-19T07:42:11;-20157.28;;;24.27;75.97
7058;BME280;3570;43.080;25.628;2023-09-19T07:45:01;-20146.31;;;23.89;77.59
7058;BME280;3570;43.080;25.628;2023-09-19T07:47:49;-20152.38;;;24.10;76.93
7058;BME280;3570;43.080;25.628;2023-09-19T07:50:34;-20147.47;;;23.93;77.36
7058;BME280;3570;43.080;25.628;2023-09-19T07:53:20;-20174.03;;;24.85;73.79
7058;BME280;3570;43.080;25.628;2023-09-19T07:56:06;-20168.56;;;24.66;72.11
7058;BME280;3570;43.080;25.628;2023-09-19T07:58:51;-20170.72;;;24.74;72.54
7058;BME280;3570;43.080;25.628;2023-09-19T08:01:35;-20176.78;;;24.95;72.94
7058;BME280;3570;43.080;25.628;2023-09-19T08:04:21;-20194.69;;;25.57;69.57
7058;BME280;3570;43.080;25.628;2023-09-19T08:07:05;-20200.88;;;25.79;68.16
7058;BME280;3570;43.080;25.628;2023-09-19T08:09:50;-20194.53;;;25.57;64.88
7058;BME280;3570;43.080;25.628;2023-09-19T08:12:34;-20195.09;;;25.59;66.65
7058;BME280;3570;43.080;25.628;2023-09-19T08:15:21;-20204.63;;;25.92;64.34
7058;BME280;3570;43.080;25.628;2023-09-19T08:18:05;-20205.34;;;25.94;61.75
7058;BME280;3570;43.080;25.628;2023-09-19T08:20:50;-20181.84;;;25.12;63.60
7058;BME280;3570;43.080;25.628;2023-09-19T08:23:35;-20167.97;;;24.64;61.62
7058;BME280;3570;43.080;25.628;2023-09-19T08:26:19;-20165.66;;;24.56;62.19
7058;BME280;3570;43.080;25.628;2023-09-19T08:29:03;-20184.72;;;25.23;62.70
7058;BME280;3570;43.080;25.628;2023-09-19T08:31:51;-20205.34;;;25.94;58.06
7058;BME280;3570;43.080;25.628;2023-09-19T08:34:35;-20205.22;;;25.94;56.76
7058;BME280;3570;43.080;25.628;2023-09-19T08:37:22;-20214.44;;;26.26;55.60
7058;BME280;3570;43.080;25.628;2023-09-19T08:40:06;-20231.59;;;26.86;53.88
7058;BME280;3570;43.080;25.628;2023-09-19T08:42:55;-20233.47;;;26.92;46.96
7058;BME280;3570;43.080;25.628;2023-09-19T08:45:39;-20221.63;;;26.51;48.49
7058;BME280;3570;43.080;25.628;2023-09-19T08:48:26;-20245.84;;;27.36;45.67
7058;BME280;3570;43.080;25.628;2023-09-19T08:51:26;-20274.34;;;28.35;42.44
7058;BME280;3570;43.080;25.628;2023-09-19T08:54:22;-20306.81;;;29.49;38.84
7058;BME280;3570;43.080;25.628;2023-09-19T08:57:10;-20313.44;;;29.72;40.11
7058;BME280;3570;43.080;25.628;2023-09-19T08:59:56;-20334.69;;;30.46;36.96
7058;BME280;3570;43.080;25.628;2023-09-19T09:02:42;-20361.09;;;31.39;34.66
7058;BME280;3570;43.080;25.628;2023-09-19T09:05:27;-20382.00;;;32.12;32.93
7058;BME280;3570;43.080;25.628;2023-09-19T09:08:12;-20399.03;;;32.72;31.13
7058;BME280;3570;43.080;25.628;2023-09-19T09:10:57;-20389.59;;;32.39;32.56
7058;BME280;3570;43.080;25.628;2023-09-19T09:13:43;-20359.66;;;31.34;31.56
7058;BME280;3570;43.080;25.628;2023-09-19T09:16:29;-20383.28;;;32.17;32.66
7058;BME280;3570;43.080;25.628;2023-09-19T09:19:14;-20355.47;;;31.19;30.11
7058;BME280;3570;43.080;25.628;2023-09-19T09:22:11;-20324.19;;;30.10;31.41
7058;BME280;3570;43.080;25.628;2023-09-19T09:24:57;-20338.13;;;30.58;34.26
7058;BME280;3570;43.080;25.628;2023-09-19T09:28:01;-20407.22;;;33.01;31.13
7058;BME280;3570;43.080;25.628;2023-09-19T09:30:45;-20404.91;;;32.93;30.74
7058;BME280;3570;43.080;25.628;2023-09-19T09:33:30;-20409.22;;;33.08;30.48
7058;BME280;3570;43.080;25.628;2023-09-19T09:36:14;-20430.38;;;33.82;29.87
7058;BME280;3570;43.080;25.628;2023-09-19T09:38:58;-20437.25;;;34.06;29.40
7058;BME280;3570;43.080;25.628;2023-09-19T09:41:43;-20447.38;;;34.42;30.48
7058;BME280;3570;43.080;25.628;2023-09-19T09:44:27;-20444.09;;;34.31;29.95
7058;BME280;3570;43.080;25.628;2023-09-19T09:47:40;-20423.81;;;33.59;30.04
7058;BME280;3570;43.080;25.628;2023-09-19T09:50:30;-20470.38;;;35.23;28.78
7058;BME280;3570;43.080;25.628;2023-09-19T09:53:34;-20441.66;;;34.22;29.43
7058;BME280;3570;43.080;25.628;2023-09-19T09:56:18;-20358.22;;;31.29;32.83
7058;BME280;3570;43.080;25.628;2023-09-19T09:59:02;-20344.44;;;30.81;33.84
7058;BME280;3570;43.080;25.628;2023-09-19T10:01:47;-20322.03;;;30.02;33.73
7058;BME280;3570;43.080;25.628;2023-09-19T10:04:34;-20309.41;;;29.58;34.80
7058;BME280;3570;43.080;25.628;2023-09-19T10:07:30;-20297.91;;;29.18;36.29
7058;BME280;3570;43.080;25.628;2023-09-19T10:13:29;-20317.75;;;29.87;36.25
7058;BME280;3570;43.080;25.628;2023-09-19T10:16:15;-20379.56;;;32.04;32.27
7058;BME280;3570;43.080;25.628;2023-09-19T10:19:07;-20400.63;;;32.78;30.70
7058;BME280;3570;43.080;25.628;2023-09-19T10:21:54;-20394.19;;;32.55;31.32
7058;BME280;3570;43.080;25.628;2023-09-19T10:24:43;-20398.91;;;32.72;32.34
7058;BME280;3570;43.080;25.628;2023-09-19T10:27:29;-20401.63;;;32.81;31.62
7058;BME280;3570;43.080;25.628;2023-09-19T10:30:14;-20388.59;;;32.35;31.14
7058;BME280;3570;43.080;25.628;2023-09-19T10:33:04;-20363.09;;;31.46;32.03
7058;BME280;3570;43.080;25.628;2023-09-19T10:35:50;-20345.88;;;30.86;33.63
7058;BME280;3570;43.080;25.628;2023-09-19T10:38:37;-20335.25;;;30.48;35.93
7058;BME280;3570;43.080;25.628;2023-09-19T10:41:25;-20334.09;;;30.44;36.88
7058;BME280;3570;43.080;25.628;2023-09-19T10:44:09;-20339.00;;;30.62;36.60
7058;BME280;3570;43.080;25.628;2023-09-19T10:46:54;-20353.34;;;31.12;35.68
7058;BME280;3570;43.080;25.628;2023-09-19T10:49:44;-20386.59;;;32.28;33.22
7058;BME280;3570;43.080;25.628;2023-09-19T10:52:33;-20450.41;;;34.53;30.95
7058;BME280;3570;43.080;25.628;2023-09-19T10:55:21;-20485.50;;;35.76;28.68
7058;BME280;3570;43.080;25.628;2023-09-19T10:58:08;-20483.94;;;35.71;28.09
7058;BME280;3570;43.080;25.628;2023-09-19T11:00:59;-20452.53;;;34.60;29.57
7058;BME280;3570;43.080;25.628;2023-09-19T11:03:47;-20432.53;;;33.90;30.11
7058;BME280;3570;43.080;25.628;2023-09-19T11:06:33;-20445.81;;;34.37;30.03
7058;BME280;3570;43.080;25.628;2023-09-19T11:09:17;-20512.31;;;36.71;27.22
7058;BME280;3570;43.080;25.628;2023-09-19T11:12:06;-20573.25;;;38.86;25.17
7058;BME280;3570;43.080;25.628;2023-09-19T11:14:50;-20569.41;;;38.73;24.93
7058;BME280;3570;43.080;25.628;2023-09-19T11:17:41;-20541.81;;;37.75;25.79
7058;BME280;3570;43.080;25.628;2023-09-19T11:20:25;-20568.13;;;38.68;24.86
7058;BME280;3570;43.080;25.628;2023-09-19T11:23:19;-20588.16;;;39.39;24.07
7058;BME280;3570;43.080;25.628;2023-09-19T11:26:41;-20528.00;;;37.26;25.82
7058;BME280;3570;43.080;25.628;2023-09-19T11:29:31;-20480.09;;;35.57;28.10
7058;BME280;3570;43.080;25.628;2023-09-19T11:32:15;-20444.81;;;34.33;29.33
7058;BME280;3570;43.080;25.628;2023-09-19T11:35:07;-20401.91;;;32.82;31.28
7058;BME280;3570;43.080;25.628;2023-09-19T11:40:35;-20403.47;;;32.88;31.75
7058;BME280;3570;43.080;25.628;2023-09-19T11:43:29;-20400.34;;;32.77;31.89
7058;BME280;3570;43.080;25.628;2023-09-19T11:46:18;-20395.03;;;32.58;32.62
7058;BME280;3570;43.080;25.628;2023-09-19T11:49:06;-20426.53;;;33.69;30.73
7058;BME280;3570;43.080;25.628;2023-09-19T11:51:57;-20481.81;;;35.63;28.73
7058;BME280;3570;43.080;25.628;2023-09-19T11:54:41;-20510.75;;;36.65;26.72
7058;BME280;3570;43.080;25.628;2023-09-19T11:57:27;-20539.25;;;37.66;26.30
7058;BME280;3570;43.080;25.628;2023-09-19T12:00:22;-20473.09;;;35.33;27.46
7058;BME280;3570;43.080;25.628;2023-09-19T12:03:11;-20425.81;;;33.66;30.19
7058;BME280;3570;43.080;25.628;2023-09-19T12:05:58;-20454.25;;;34.66;29.39
7058;BME280;3570;43.080;25.628;2023-09-19T12:08:44;-20480.09;;;35.57;29.00
7058;BME280;3570;43.080;25.628;2023-09-19T12:11:32;-20492.22;;;36.00;28.33
7058;BME280;3570;43.080;25.628;2023-09-19T12:14:24;-20509.31;;;36.60;27.09
7058;BME280;3570;43.080;25.628;2023-09-19T12:17:09;-20498.50;;;36.22;27.08
7058;BME280;3570;43.080;25.628;2023-09-19T12:19:55;-20489.06;;;35.89;27.83
7058;BME280;3570;43.080;25.628;2023-09-19T12:22:43;-20510.19;;;36.63;27.65
7058;BME280;3570;43.080;25.628;2023-09-19T12:25:41;-20534.25;;;37.48;26.39
7058;BME280;3570;43.080;25.628;2023-09-19T12:28:27;-20552.19;;;38.12;25.58
7058;BME280;3570;43.080;25.628;2023-09-19T12:31:14;-20601.50;;;39.86;23.56
7058;BME280;3570;43.080;25.628;2023-09-19T12:34:02;-20596.81;;;39.70;23.51
7058;BME280;3570;43.080;25.628;2023-09-19T12:36:46;-20552.19;;;38.12;24.83
7058;BME280;3570;43.080;25.628;2023-09-19T12:39:31;-20551.06;;;38.08;25.31
7058;BME280;3570;43.080;25.628;2023-09-19T12:42:16;-20574.09;;;38.89;24.66
7058;BME280;3570;43.080;25.628;2023-09-19T12:45:02;-20538.66;;;37.64;25.03
7058;BME280;3570;43.080;25.628;2023-09-19T12:48:21;-20524.28;;;37.13;25.56
7058;BME280;3570;43.080;25.628;2023-09-19T12:51:10;-20519.59;;;36.97;24.61
7058;BME280;3570;43.080;25.628;2023-09-19T12:53:59;-20462.53;;;34.95;27.87
7058;BME280;3570;43.080;25.628;2023-09-19T12:56:44;-20480.38;;;35.58;26.54
7058;BME280;3570;43.080;25.628;2023-09-19T12:59:29;-20553.63;;;38.17;24.55
7058;BME280;3570;43.080;25.628;2023-09-19T13:02:16;-20597.97;;;39.74;23.21
7058;BME280;3570;43.080;25.628;2023-09-19T13:05:04;-20657.22;;;41.84;21.74
7058;BME280;3570;43.080;25.628;2023-09-19T13:07:50;-20662.91;;;42.04;20.98
7058;BME280;3570;43.080;25.628;2023-09-19T13:14:14;-20696.84;;;43.25;19.83
7058;BME280;3570;43.080;25.628;2023-09-19T13:17:07;-20715.63;;;43.92;19.92
7058;BME280;3570;43.080;25.628;2023-09-19T13:20:03;-20725.38;;;44.26;19.27
7058;BME280;3570;43.080;25.628;2023-09-19T13:22:50;-20705.88;;;43.57;19.51
7058;BME280;3570;43.080;25.628;2023-09-19T13:25:43;-20709.84;;;43.71;19.06
7058;BME280;3570;43.080;25.628;2023-09-19T13:28:28;-20724.38;;;44.23;18.89
7058;BME280;3570;43.080;25.628;2023-09-19T13:31:12;-20719.72;;;44.06;18.89
7058;BME280;3570;43.080;25.628;2023-09-19T13:33:57;-20728.19;;;44.36;18.83
7058;BME280;3570;43.080;25.628;2023-09-19T13:36:41;-20705.19;;;43.54;18.54
7058;BME280;3570;43.080;25.628;2023-09-19T13:39:26;-20710.69;;;43.74;18.59
7058;BME280;3570;43.080;25.628;2023-09-19T13:42:10;-20705.88;;;43.57;18.96
7058;BME280;3570;43.080;25.628;2023-09-19T13:44:56;-20733.13;;;44.54;17.92
7058;BME280;3570;43.080;25.628;2023-09-19T13:47:40;-20736.94;;;44.67;17.73
7058;BME280;3570;43.080;25.628;2023-09-19T13:50:25;-20728.91;;;44.39;19.10
7058;BME280;3570;43.080;25.628;2023-09-19T13:53:10;-20744.41;;;44.94;18.04
7058;BME280;3570;43.080;25.628;2023-09-19T13:55:55;-20718.88;;;44.03;18.26
7058;BME280;3570;43.080;25.628;2023-09-19T13:58:39;-20732.72;;;44.52;18.45
7058;BME280;3570;43.080;25.628;2023-09-19T14:01:26;-20737.78;;;44.70;17.58
7058;BME280;3570;43.080;25.628;2023-09-19T14:04:10;-20757.38;;;45.40;17.26
7058;BME280;3570;43.080;25.628;2023-09-19T14:06:55;-20766.25;;;45.72;16.33
7058;BME280;3570;43.080;25.628;2023-09-19T14:09:41;-20780.50;;;46.23;16.54
7058;BME280;3570;43.080;25.628;2023-09-19T14:12:25;-20799.19;;;46.90;15.57
7058;BME280;3570;43.080;25.628;2023-09-19T14:15:09;-20820.28;;;47.65;15.43
7058;BME280;3570;43.080;25.628;2023-09-19T14:17:54;-20842.19;;;48.44;14.24
7058;BME280;3570;43.080;25.628;2023-09-19T14:20:39;-20765.44;;;45.69;15.99
7058;BME280;3570;43.080;25.628;2023-09-19T14:23:24;-20714.94;;;43.89;17.19
7058;BME280;3570;43.080;25.628;2023-09-19T14:26:10;-20659.63;;;41.92;19.96
7058;BME280;3570;43.080;25.628;2023-09-19T14:28:54;-20625.47;;;40.71;20.80
7058;BME280;3570;43.080;25.628;2023-09-19T14:31:39;-20572.66;;;38.84;21.97
7058;BME280;3570;43.080;25.628;2023-09-19T14:34:24;-20529.13;;;37.30;21.61
7058;BME280;3570;43.080;25.628;2023-09-19T14:37:08;-20493.22;;;36.04;25.23
7058;BME280;3570;43.080;25.628;2023-09-19T14:39:52;-20449.81;;;34.51;25.53
7058;BME280;3570;43.080;25.628;2023-09-19T14:42:39;-20411.78;;;33.17;27.66
7058;BME280;3570;43.080;25.628;2023-09-19T14:45:24;-20395.91;;;32.61;27.28
7058;BME280;3570;43.080;25.628;2023-09-19T14:48:09;-20384.88;;;32.22;27.54
7058;BME280;3570;43.080;25.628;2023-09-19T14:50:53;-20361.66;;;31.41;29.32
7058;BME280;3570;43.080;25.628;2023-09-19T14:53:39;-20353.03;;;31.11;28.45
7058;BME280;3570;43.080;25.628;2023-09-19T14:56:23;-20348.75;;;30.96;28.41
7058;BME280;3570;43.080;25.628;2023-09-19T14:59:09;-20380.72;;;32.08;27.94
7058;BME280;3570;43.080;25.628;2023-09-19T15:01:54;-20405.63;;;32.95;28.66